Archival Weather

Heathrow

Heathrow, United Kingdom (EGLL)

Report from: Thursday, June 23, 2022 12:50 PM BST
Current time: Tuesday, August 16, 2022 8:49 AM BST

Current weather
Weather history
Weather forecast

Temperature22.0°C (71.6°F)
Dew point12.0°C (53.6°F)
Winds 4 kts (2.1 m/s, 4.6 mph) Vrb
Winds variableWinds variable from Northeast (50°) to Southwest (230°)
Visibility6.2 mi. (10 km)
Clouds Sky clear
Altimeter29.80 in.Hg (1009 mB)
Relative humidity53 %
Density altitude1,156 ft. (352 m)
Remarks Fully automated report
No clouds detected
No significant changes expected in the next two hours
Flight conditions Visual Meteorological Conditions
Raw dataEGLL 231150Z AUTO 33004KT 230V050 9999 NCD 22/12 Q1009 NOSIG
An error has occurred. This application may no longer respond until reloaded. Reload 🗙